Atwood, Wisconsin
Current Conditions -  °F | °C
As of 1:55 PM on Sunday 23 Nov 2014 (Local Time) from KMDZ Reporting Station
Moderate Fog Moderate Fog  
Wind Chill: 39°   Ceiling: 200
Heat Index: 43°   Visibility: 0mi
Dew Point: 43°   Wind: 6mph
Humidity: 100%   Direction: 150°SSE
Pressure: 29.42"   Gusts: NA
Location:  44.9782°N, 90.5368°W
Report Text: KMDZ 231955Z AUTO 15005KT M1/4SM FG OVC002 06/06 A2942 RMK AO2 T00600060
Loading
Personal Weather Stations






























Interactive Weather Map New forecast layout! Learn more

10-Day Weather Forecast

Advertisements
Track Severe Weather on mobile